createdAt,value
2019-04-12T00:02:10.954Z,7.70
2019-04-12T00:04:41.718Z,7.90
2019-04-12T00:07:12.493Z,7.80
2019-04-12T00:09:43.244Z,7.83
2019-04-12T00:12:14.019Z,7.80
2019-04-12T00:14:44.864Z,8.10
2019-04-12T00:17:15.633Z,7.90
2019-04-12T00:19:46.391Z,8.50
2019-04-12T00:22:17.154Z,7.77
2019-04-12T00:24:47.914Z,7.77
2019-04-12T00:27:19.043Z,8.40
2019-04-12T00:29:51.086Z,8.55
2019-04-12T00:32:22.514Z,7.62
2019-04-12T00:34:54.162Z,8.30
2019-04-12T00:37:25.309Z,7.67
2019-04-12T00:39:57.940Z,7.35
2019-04-12T00:42:32.985Z,8.28
2019-04-12T00:45:04.283Z,8.15
2019-04-12T00:47:34.562Z,8.20
2019-04-12T00:50:05.413Z,8.00
2019-04-12T00:52:36.182Z,7.40
2019-04-12T00:55:06.939Z,7.80
2019-04-12T00:57:37.731Z,8.20
2019-04-12T01:00:08.685Z,7.33
2019-04-12T01:02:45.926Z,8.60
2019-04-12T01:05:18.732Z,7.67
2019-04-12T01:08:05.319Z,8.45
2019-04-12T01:10:37.533Z,8.03
2019-04-12T01:13:08.516Z,7.90
2019-04-12T01:15:39.974Z,8.73
2019-04-12T01:18:10.737Z,8.83
2019-04-12T01:20:42.187Z,8.37
2019-04-12T01:23:13.350Z,7.95
2019-04-12T01:25:45.213Z,8.30
2019-04-12T01:28:18.069Z,7.78
2019-04-12T01:30:48.729Z,7.97
2019-04-12T01:33:19.496Z,8.23
2019-04-12T01:35:50.253Z,7.87
2019-04-12T01:38:21.018Z,8.33
2019-04-12T01:40:51.779Z,7.50
2019-04-12T01:43:22.545Z,8.30
2019-04-12T01:45:53.306Z,9.17
2019-04-12T01:48:24.109Z,8.47
2019-04-12T01:50:54.820Z,8.37
2019-04-12T01:53:25.597Z,8.60
2019-04-12T01:55:56.740Z,8.13
2019-04-12T01:58:27.527Z,8.20
2019-04-12T02:00:58.489Z,8.13
2019-04-12T02:03:29.251Z,8.77
2019-04-12T02:06:00.005Z,8.53
2019-04-12T02:08:30.770Z,9.00
2019-04-12T02:11:01.833Z,9.77
2019-04-12T02:13:32.602Z,8.80
2019-04-12T02:16:03.452Z,8.60
2019-04-12T02:18:34.218Z,8.50
2019-04-12T02:21:05.070Z,7.87
2019-04-12T02:23:36.245Z,9.10
2019-04-12T02:26:07.003Z,8.63
2019-04-12T02:28:51.562Z,8.53
2019-04-12T02:31:26.535Z,8.73
2019-04-12T02:33:57.405Z,8.40
2019-04-12T02:36:31.861Z,9.03
2019-04-12T02:39:05.434Z,8.85
2019-04-12T02:41:37.414Z,8.80
2019-04-12T02:44:08.264Z,8.95
2019-04-12T02:47:00.863Z,8.90
2019-04-12T02:49:34.934Z,9.00
2019-04-12T02:52:11.415Z,8.53
2019-04-12T02:54:44.290Z,8.00
2019-04-12T02:57:21.546Z,8.90
2019-04-12T02:59:52.956Z,10.28
2019-04-12T03:02:25.905Z,8.85
2019-04-12T03:04:56.951Z,8.65
2019-04-12T03:07:27.706Z,9.10
2019-04-12T03:09:59.078Z,9.00
2019-04-12T03:12:30.336Z,9.53
2019-04-12T03:15:02.312Z,9.00
2019-04-12T03:17:33.366Z,8.90
2019-04-12T03:20:05.841Z,8.85
2019-04-12T03:22:36.713Z,8.65
2019-04-12T03:25:08.196Z,9.30
2019-04-12T03:27:39.157Z,8.88
2019-04-12T03:30:10.123Z,8.43
2019-04-12T03:32:40.981Z,8.87
2019-04-12T03:35:12.154Z,8.47
2019-04-12T03:37:43.402Z,8.88
2019-04-12T03:40:14.175Z,9.60
2019-04-12T03:42:45.627Z,9.50
2019-04-12T03:45:16.390Z,9.00
2019-04-12T03:47:47.256Z,9.60
2019-04-12T03:50:18.022Z,9.30
2019-04-12T03:52:48.777Z,10.10
2019-04-12T03:55:19.543Z,9.70
2019-04-12T03:57:50.304Z,9.87
2019-04-12T04:00:24.935Z,9.13
2019-04-12T04:02:55.746Z,9.85
2019-04-12T04:05:26.514Z,9.50
2019-04-12T04:07:57.272Z,9.40
2019-04-12T04:10:28.048Z,10.07
2019-04-12T04:12:59.007Z,9.47
2019-04-12T04:15:29.870Z,10.97
2019-04-12T04:18:21.023Z,9.70
2019-04-12T04:21:06.367Z,10.58
2019-04-12T04:23:39.231Z,10.10
2019-04-12T04:26:22.934Z,10.95
2019-04-12T04:28:49.916Z,10.55
2019-04-12T04:31:31.525Z,10.53
2019-04-12T04:34:02.574Z,10.20
2019-04-12T04:36:33.338Z,10.40
2019-04-12T04:39:07.006Z,10.53
2019-04-12T04:41:38.277Z,10.82
2019-04-12T04:44:09.034Z,11.55
2019-04-12T04:46:39.798Z,10.87
2019-04-12T04:49:10.758Z,9.80
2019-04-12T04:51:41.537Z,10.27
2019-04-12T04:54:12.484Z,10.03
2019-04-12T04:56:43.390Z,10.83
2019-04-12T04:59:14.357Z,10.23
2019-04-12T05:01:45.270Z,11.50
2019-04-12T05:04:16.070Z,10.77
2019-04-12T05:06:47.034Z,10.03
2019-04-12T05:09:17.986Z,9.83
2019-04-12T05:11:48.769Z,10.60
2019-04-12T05:14:19.627Z,10.70
2019-04-12T05:16:50.494Z,11.57
2019-04-12T05:19:21.855Z,11.23
2019-04-12T05:21:52.624Z,10.58
2019-04-12T05:24:23.390Z,11.10
2019-04-12T05:26:54.151Z,10.73
2019-04-12T05:29:25.138Z,10.87
2019-04-12T05:31:56.298Z,10.80
2019-04-12T05:34:27.277Z,10.88
2019-04-12T05:37:09.376Z,11.13
2019-04-12T05:39:30.806Z,10.95
2019-04-12T05:42:01.675Z,11.33
2019-04-12T05:44:32.430Z,10.27
2019-04-12T05:47:08.645Z,11.30
2019-04-12T05:49:44.045Z,11.60
2019-04-12T05:52:14.825Z,11.50
2019-04-12T05:54:45.678Z,11.30
2019-04-12T05:57:16.448Z,11.40
2019-04-12T05:59:47.211Z,11.47
2019-04-12T06:02:35.482Z,10.83
2019-04-12T06:05:06.939Z,10.93
2019-04-12T06:07:37.801Z,11.28
2019-04-12T06:10:08.757Z,11.23
2019-04-12T06:12:39.820Z,11.83
2019-04-12T06:15:10.570Z,11.48
2019-04-12T06:17:41.738Z,11.60
2019-04-12T06:20:29.283Z,12.05
2019-04-12T06:23:08.738Z,10.95
2019-04-12T06:25:57.814Z,11.83
2019-04-12T06:28:28.585Z,11.93
2019-04-12T06:31:00.694Z,12.30
2019-04-12T06:33:31.712Z,11.18
2019-04-12T06:36:02.567Z,11.30
2019-04-12T06:38:33.332Z,11.50
2019-04-12T06:41:04.085Z,11.43
2019-04-12T06:43:34.850Z,11.90
2019-04-12T06:46:06.704Z,12.10
2019-04-12T06:48:37.475Z,12.45
2019-04-12T06:51:10.139Z,11.20
2019-04-12T06:53:40.977Z,12.07
2019-04-12T06:56:13.633Z,12.27
2019-04-12T06:58:44.417Z,12.03
2019-04-12T07:01:17.123Z,12.40
2019-04-12T07:04:01.704Z,12.05
2019-04-12T07:06:32.549Z,12.40
2019-04-12T07:09:05.356Z,12.47
2019-04-12T07:11:36.171Z,13.28
2019-04-12T07:14:07.013Z,12.63
2019-04-12T07:16:37.864Z,13.13
2019-04-12T07:19:08.633Z,11.83
2019-04-12T07:21:39.595Z,12.40
2019-04-12T07:24:10.368Z,12.60
2019-04-12T07:26:41.190Z,13.13
2019-04-12T07:29:11.959Z,14.23
2019-04-12T07:31:42.775Z,12.83
2019-04-12T07:34:13.605Z,11.67
2019-04-12T07:36:44.442Z,13.67
2019-04-12T07:39:15.324Z,13.20
2019-04-12T07:41:46.073Z,13.07
2019-04-12T07:44:16.850Z,13.00
2019-04-12T07:46:47.685Z,13.97
2019-04-12T07:49:18.833Z,13.40
2019-04-12T07:51:51.501Z,13.68
2019-04-12T07:54:24.168Z,13.70
2019-04-12T07:56:54.930Z,11.68
2019-04-12T07:59:27.302Z,12.50
2019-04-12T08:02:18.106Z,13.40
2019-04-12T08:04:59.582Z,12.85
2019-04-12T08:07:37.628Z,12.40
2019-04-12T08:10:08.015Z,12.73
2019-04-12T08:12:38.846Z,12.40
2019-04-12T08:15:13.327Z,11.40
2019-04-12T08:17:42.357Z,13.55
2019-04-12T08:20:13.319Z,13.20
2019-04-12T08:22:44.141Z,14.80
2019-04-12T08:25:14.905Z,12.97
2019-04-12T08:27:45.870Z,13.87
2019-04-12T08:30:16.811Z,14.37
2019-04-12T08:32:47.585Z,13.90
2019-04-12T08:35:18.443Z,12.87
2019-04-12T08:37:49.205Z,12.77
2019-04-12T08:40:20.024Z,14.13
2019-04-12T08:42:50.766Z,13.07
2019-04-12T08:45:21.530Z,13.40
2019-04-12T08:47:52.301Z,13.40
2019-04-12T08:50:23.113Z,14.00
2019-04-12T08:52:54.010Z,13.63
2019-04-12T08:55:24.990Z,14.10
2019-04-12T08:57:55.739Z,13.67
2019-04-12T09:00:26.573Z,15.47
2019-04-12T09:02:59.270Z,14.67
2019-04-12T09:05:32.855Z,15.10
2019-04-12T09:08:02.697Z,14.00
2019-04-12T09:10:35.703Z,15.17
2019-04-12T09:13:06.709Z,14.70
2019-04-12T09:15:37.523Z,14.30
2019-04-12T09:18:08.268Z,14.40
2019-04-12T09:20:43.700Z,15.33
2019-04-12T09:23:25.329Z,14.33
2019-04-12T09:25:58.088Z,15.00
2019-04-12T09:28:28.830Z,14.93
2019-04-12T09:30:59.612Z,14.77
2019-04-12T09:33:30.317Z,14.37
2019-04-12T09:36:01.081Z,14.87
2019-04-12T09:38:31.840Z,14.30
2019-04-12T09:41:02.614Z,14.20
2019-04-12T09:43:33.369Z,15.03
2019-04-12T09:46:04.862Z,15.27
2019-04-12T09:48:35.603Z,14.00
2019-04-12T09:51:06.381Z,15.03
2019-04-12T09:53:38.666Z,14.03
2019-04-12T09:56:09.724Z,13.80
2019-04-12T09:58:40.483Z,13.73
2019-04-12T10:01:12.278Z,13.90
2019-04-12T10:03:43.198Z,13.20
2019-04-12T10:06:13.959Z,14.50
2019-04-12T10:08:44.719Z,14.00
2019-04-12T10:11:15.515Z,14.50
2019-04-12T10:13:46.339Z,13.40
2019-04-12T10:16:17.114Z,15.07
2019-04-12T10:18:47.870Z,13.90
2019-04-12T10:21:18.687Z,13.73
2019-04-12T10:23:49.452Z,13.53
2019-04-12T10:26:20.199Z,14.07
2019-04-12T10:28:51.115Z,13.50
2019-04-12T10:31:21.936Z,13.97
2019-04-12T10:33:53.511Z,13.40
2019-04-12T10:36:24.282Z,14.80
2019-04-12T10:38:59.509Z,13.50
2019-04-12T10:41:29.618Z,13.63
2019-04-12T10:44:20.450Z,14.17
2019-04-12T10:46:53.142Z,15.10
2019-04-12T10:49:42.247Z,14.10
2019-04-12T10:52:31.490Z,14.00
2019-04-12T10:55:04.954Z,14.63
2019-04-12T10:57:35.728Z,13.57
2019-04-12T11:00:07.604Z,14.87
2019-04-12T11:02:38.394Z,13.90
2019-04-12T11:05:09.360Z,14.70
2019-04-12T11:07:40.129Z,14.20
2019-04-12T11:10:11.008Z,13.87
2019-04-12T11:12:41.787Z,14.23
2019-04-12T11:15:21.249Z,14.57
2019-04-12T11:17:45.261Z,14.00
2019-04-12T11:20:16.085Z,14.43
2019-04-12T11:22:46.928Z,15.30
2019-04-12T11:25:28.577Z,13.93
2019-04-12T11:27:50.438Z,13.43
2019-04-12T11:30:21.200Z,13.73
2019-04-12T11:32:51.961Z,13.27
2019-04-12T11:35:23.062Z,14.30
2019-04-12T11:37:53.838Z,14.43
2019-04-12T11:40:25.012Z,14.63
2019-04-12T11:42:55.887Z,14.23
2019-04-12T11:45:26.899Z,15.07
2019-04-12T11:47:57.749Z,14.77
2019-04-12T11:50:28.571Z,14.40
2019-04-12T11:52:59.429Z,14.67
2019-04-12T11:55:30.854Z,13.90
2019-04-12T11:58:01.703Z,14.03
2019-04-12T12:00:37.229Z,14.67
2019-04-12T12:03:09.898Z,13.80
2019-04-12T12:05:42.615Z,14.47
2019-04-12T12:08:30.443Z,14.73
2019-04-12T12:11:18.223Z,14.43
2019-04-12T12:13:50.917Z,14.37
2019-04-12T12:16:26.377Z,14.43
2019-04-12T12:18:59.050Z,13.40
2019-04-12T12:21:29.914Z,14.70
2019-04-12T12:24:00.708Z,14.70
2019-04-12T12:26:31.457Z,13.40
2019-04-12T12:29:02.260Z,12.93
2019-04-12T12:31:33.062Z,13.23
2019-04-12T12:34:03.834Z,12.97
2019-04-12T12:36:34.587Z,13.30
2019-04-12T12:39:06.383Z,13.93
2019-04-12T12:41:37.506Z,12.73
2019-04-12T12:44:08.373Z,13.97
2019-04-12T12:46:39.545Z,14.47
2019-04-12T12:49:11.759Z,13.70
2019-04-12T12:51:42.944Z,13.90
2019-04-12T12:54:13.771Z,14.90
2019-04-12T12:56:44.526Z,14.40
2019-04-12T12:59:15.301Z,14.53
2019-04-12T13:01:46.185Z,13.20
2019-04-12T13:04:16.942Z,15.30
2019-04-12T13:06:47.698Z,14.17
2019-04-12T13:09:18.581Z,14.50
2019-04-12T13:11:49.337Z,13.70
2019-04-12T13:14:20.114Z,14.23
2019-04-12T13:16:50.873Z,13.27
2019-04-12T13:19:21.642Z,13.20
2019-04-12T13:21:52.401Z,13.67
2019-04-12T13:24:23.207Z,14.20
2019-04-12T13:26:54.017Z,14.27
2019-04-12T13:29:24.793Z,14.43
2019-04-12T13:32:06.581Z,13.40
2019-04-12T13:34:42.251Z,13.47
2019-04-12T13:37:20.579Z,13.83
2019-04-12T13:40:11.463Z,13.50
2019-04-12T13:42:43.925Z,12.50
2019-04-12T13:45:16.704Z,13.87
2019-04-12T13:47:47.458Z,13.60
2019-04-12T13:50:18.271Z,12.97
2019-04-12T13:52:49.027Z,12.17
2019-04-12T13:55:19.830Z,13.70
2019-04-12T13:57:50.590Z,13.57
2019-04-12T14:00:21.777Z,14.30
2019-04-12T14:02:52.631Z,13.43
2019-04-12T14:05:23.447Z,13.47
2019-04-12T14:07:54.200Z,13.30
2019-04-12T14:10:24.970Z,13.33
2019-04-12T14:13:02.461Z,14.20
2019-04-12T14:15:28.430Z,14.07
2019-04-12T14:17:59.324Z,14.10
2019-04-12T14:20:30.148Z,14.00
2019-04-12T14:23:00.973Z,15.30
2019-04-12T14:25:32.055Z,15.10
2019-04-12T14:28:03.422Z,14.67
2019-04-12T14:30:42.074Z,12.97
2019-04-12T14:33:14.840Z,14.33
2019-04-12T14:36:03.894Z,14.60
2019-04-12T14:38:34.755Z,14.40
2019-04-12T14:41:05.605Z,14.80
2019-04-12T14:43:44.066Z,13.17
2019-04-12T14:46:16.747Z,14.20
2019-04-12T14:48:47.520Z,14.23
2019-04-12T14:51:18.372Z,14.43
2019-04-12T14:53:49.132Z,14.47
2019-04-12T14:56:19.945Z,14.10
2019-04-12T14:58:50.761Z,14.13
2019-04-12T15:01:21.678Z,13.73
2019-04-12T15:03:52.434Z,13.83
2019-04-12T15:06:23.284Z,13.87
2019-04-12T15:08:54.040Z,13.47
2019-04-12T15:11:24.793Z,14.63
2019-04-12T15:13:55.605Z,14.17
2019-04-12T15:16:26.467Z,14.50
2019-04-12T15:18:57.489Z,12.90
2019-04-12T15:21:28.320Z,13.10
2019-04-12T15:23:59.136Z,13.97
2019-04-12T15:26:30.266Z,14.97
2019-04-12T15:29:01.114Z,13.80
2019-04-12T15:31:31.882Z,14.37
2019-04-12T15:34:02.653Z,14.03
2019-04-12T15:36:33.512Z,14.13
2019-04-12T15:39:07.400Z,14.80
2019-04-12T15:41:38.255Z,15.20
2019-04-12T15:44:09.030Z,14.83
2019-04-12T15:46:39.905Z,13.60
2019-04-12T15:49:10.673Z,16.23
2019-04-12T15:51:42.530Z,14.23
2019-04-12T15:54:13.297Z,14.97
2019-04-12T15:56:44.054Z,15.70
2019-04-12T15:59:14.842Z,14.60
2019-04-12T16:01:45.628Z,14.13
2019-04-12T16:04:16.375Z,15.47
2019-04-12T16:06:47.132Z,15.80
2019-04-12T16:09:24.814Z,15.57
2019-04-12T16:12:04.974Z,16.10
2019-04-12T16:14:42.719Z,15.07
2019-04-12T16:17:29.394Z,15.97
2019-04-12T16:20:00.544Z,15.03
2019-04-12T16:22:31.327Z,15.80
2019-04-12T16:25:02.083Z,15.07
2019-04-12T16:27:36.149Z,16.03
2019-04-12T16:30:27.059Z,15.40
2019-04-12T16:32:59.727Z,16.63
2019-04-12T16:35:38.217Z,15.90
2019-04-12T16:38:10.886Z,15.37
2019-04-12T16:40:41.651Z,15.10
2019-04-12T16:43:12.421Z,14.00
2019-04-12T16:45:43.181Z,15.30
2019-04-12T16:48:13.952Z,14.90
2019-04-12T16:50:44.709Z,16.33
2019-04-12T16:53:15.486Z,14.47
2019-04-12T16:55:46.255Z,15.60
2019-04-12T16:58:17.088Z,16.33
2019-04-12T17:00:47.860Z,16.20
2019-04-12T17:03:18.667Z,15.60
2019-04-12T17:05:49.419Z,15.83
2019-04-12T17:08:20.186Z,15.03
2019-04-12T17:10:51.181Z,15.63
2019-04-12T17:13:21.942Z,15.80
2019-04-12T17:15:52.702Z,14.10
2019-04-12T17:18:23.459Z,16.50
2019-04-12T17:20:55.418Z,15.47
2019-04-12T17:23:26.330Z,14.80
2019-04-12T17:25:57.099Z,15.83
2019-04-12T17:28:27.860Z,16.97
2019-04-12T17:30:58.633Z,14.73
2019-04-12T17:33:29.386Z,15.37
2019-04-12T17:36:00.156Z,15.30
2019-04-12T17:38:30.910Z,15.93
2019-04-12T17:41:01.684Z,16.20
2019-04-12T17:43:32.429Z,15.83
2019-04-12T17:46:03.198Z,14.43
2019-04-12T17:48:48.123Z,15.70
2019-04-12T17:51:29.551Z,16.00
2019-04-12T17:54:04.754Z,15.60
2019-04-12T17:56:35.710Z,15.67
2019-04-12T17:59:06.505Z,17.23
2019-04-12T18:01:42.058Z,15.47
2019-04-12T18:04:17.706Z,16.30
2019-04-12T18:06:48.454Z,16.17
2019-04-12T18:09:19.240Z,16.33
2019-04-12T18:11:50.000Z,16.53
2019-04-12T18:14:20.757Z,14.87
2019-04-12T18:16:51.693Z,14.97
2019-04-12T18:19:22.456Z,15.90
2019-04-12T18:21:53.304Z,15.90
2019-04-12T18:24:24.123Z,16.07
2019-04-12T18:26:54.971Z,16.30
2019-04-12T18:29:25.740Z,15.40
2019-04-12T18:31:56.521Z,16.03
2019-04-12T18:34:27.283Z,15.80
2019-04-12T18:36:58.050Z,16.87
2019-04-12T18:39:30.990Z,16.30
2019-04-12T18:42:01.766Z,15.18
2019-04-12T18:44:32.562Z,15.07
2019-04-12T18:47:03.405Z,15.47
2019-04-12T18:49:34.244Z,16.10
2019-04-12T18:52:05.075Z,17.37
2019-04-12T18:54:35.836Z,16.60
2019-04-12T18:57:06.599Z,15.50
2019-04-12T18:59:37.366Z,16.47
2019-04-12T19:02:08.134Z,16.00
2019-04-12T19:04:38.900Z,16.60
2019-04-12T19:07:11.605Z,16.70
2019-04-12T19:09:42.574Z,17.30
2019-04-12T19:12:13.358Z,15.83
2019-04-12T19:14:44.122Z,16.33
2019-04-12T19:17:19.574Z,16.80
2019-04-12T19:19:50.458Z,17.10
2019-04-12T19:22:21.219Z,17.13
2019-04-12T19:24:51.978Z,16.37
2019-04-12T19:27:22.743Z,17.50
2019-04-12T19:29:53.516Z,15.90
2019-04-12T19:32:39.408Z,17.30
2019-04-12T19:35:15.839Z,15.03
2019-04-12T19:38:03.180Z,15.83
2019-04-12T19:40:35.279Z,15.75
2019-04-12T19:43:06.065Z,16.90
2019-04-12T19:45:36.813Z,17.10
2019-04-12T19:48:07.577Z,16.47
2019-04-12T19:50:38.470Z,18.20
2019-04-12T19:53:09.270Z,16.00
2019-04-12T19:55:40.018Z,16.93
2019-04-12T19:58:10.911Z,15.73
2019-04-12T20:00:41.873Z,15.80
2019-04-12T20:03:12.730Z,15.97
2019-04-12T20:05:43.504Z,16.53
2019-04-12T20:08:14.317Z,16.63
2019-04-12T20:10:45.075Z,15.60
2019-04-12T20:13:15.890Z,16.00
2019-04-12T20:15:46.664Z,18.10
2019-04-12T20:18:17.431Z,17.00
2019-04-12T20:20:48.190Z,17.00
2019-04-12T20:23:18.962Z,15.73
2019-04-12T20:25:49.718Z,18.00
2019-04-12T20:28:20.490Z,18.07
2019-04-12T20:30:51.247Z,16.20
2019-04-12T20:33:22.146Z,16.60
2019-04-12T20:35:52.874Z,16.07
2019-04-12T20:38:23.824Z,16.60
2019-04-12T20:40:54.576Z,16.67
2019-04-12T20:43:25.341Z,18.30
2019-04-12T20:45:56.094Z,16.40
2019-04-12T20:48:26.862Z,15.63
2019-04-12T20:50:57.698Z,17.13
2019-04-12T20:53:28.474Z,17.17
2019-04-12T20:55:59.241Z,18.03
2019-04-12T20:58:30.028Z,16.50
2019-04-12T21:01:00.867Z,17.60
2019-04-12T21:03:31.646Z,17.90
2019-04-12T21:06:02.404Z,17.30
2019-04-12T21:08:33.167Z,16.93
2019-04-12T21:11:03.922Z,16.60
2019-04-12T21:13:34.850Z,16.87
2019-04-12T21:16:05.650Z,16.60
2019-04-12T21:18:36.417Z,17.10
2019-04-12T21:21:07.232Z,17.90
2019-04-12T21:23:38.006Z,16.70
2019-04-12T21:26:08.933Z,16.23
2019-04-12T21:28:39.965Z,17.80
2019-04-12T21:31:10.770Z,15.90
2019-04-12T21:33:41.540Z,17.87
2019-04-12T21:36:12.294Z,16.50
2019-04-12T21:38:43.071Z,16.37
2019-04-12T21:41:13.835Z,16.97
2019-04-12T21:43:44.675Z,16.40
2019-04-12T21:46:19.973Z,16.60
2019-04-12T21:48:48.101Z,17.20
2019-04-12T21:51:18.858Z,16.50
2019-04-12T21:53:50.482Z,17.90
2019-04-12T21:56:21.385Z,17.20
2019-04-12T21:58:52.150Z,18.20
2019-04-12T22:01:23.117Z,17.23
2019-04-12T22:03:53.888Z,16.13
2019-04-12T22:06:24.640Z,16.33
2019-04-12T22:08:55.405Z,15.37
2019-04-12T22:11:26.161Z,16.80
2019-04-12T22:13:56.944Z,14.93
2019-04-12T22:16:27.709Z,17.30
2019-04-12T22:18:58.480Z,16.67
2019-04-12T22:21:29.238Z,17.30
2019-04-12T22:23:59.999Z,17.10
2019-04-12T22:26:30.753Z,17.53
2019-04-12T22:29:01.515Z,17.50
2019-04-12T22:31:34.168Z,15.60
2019-04-12T22:34:04.960Z,17.45
2019-04-12T22:36:35.722Z,16.83
2019-04-12T22:39:06.481Z,17.00
2019-04-12T22:41:37.274Z,16.97
2019-04-12T22:44:08.030Z,16.67
2019-04-12T22:46:38.789Z,18.13
2019-04-12T22:49:09.544Z,17.80
2019-04-12T22:51:40.310Z,18.47
2019-04-12T22:54:11.077Z,18.37
2019-04-12T22:56:41.845Z,17.93
2019-04-12T22:59:12.612Z,17.00
2019-04-12T23:01:43.373Z,16.53
2019-04-12T23:04:14.128Z,16.63
2019-04-12T23:06:44.890Z,17.20
2019-04-12T23:09:15.646Z,17.13
2019-04-12T23:11:46.412Z,16.60
2019-04-12T23:14:17.171Z,17.00
2019-04-12T23:16:48.241Z,18.77
2019-04-12T23:19:18.997Z,17.05
2019-04-12T23:21:49.766Z,18.57
2019-04-12T23:24:20.576Z,18.00
2019-04-12T23:26:51.337Z,18.73
2019-04-12T23:29:22.091Z,18.67
2019-04-12T23:31:54.758Z,17.13
2019-04-12T23:34:42.693Z,17.82
2019-04-12T23:37:13.464Z,17.85
2019-04-12T23:39:44.218Z,18.37
2019-04-12T23:42:14.986Z,18.10
2019-04-12T23:44:45.742Z,18.67
2019-04-12T23:47:16.508Z,17.47
2019-04-12T23:49:47.280Z,18.80
2019-04-12T23:52:18.051Z,17.40
2019-04-12T23:54:48.807Z,17.40
2019-04-12T23:57:19.674Z,18.90
2019-04-12T23:59:50.443Z,18.00
